Time;durP1;ratioP1;P1;durP2;ratioP2;P2;SDS_P1;SDS_P2;PMS_P1;PMS_P2;Temp;Humidity;BMP_temperature;BMP_pressure;BME280_temperature;BME280_humidity;BME280_pressure;Samples;Min_cycle;Max_cycle;Signal;HPM_P1;HPM_P2
2022/03/07 00:09:09;;;;;;;0.20;0.10;;;9.80;99.90;;;;;;25547872;23;20201;-66
2022/03/07 00:19:14;;;;;;;0.20;0.07;;;9.80;99.90;;;;;;25573606;23;20197;-67
2022/03/07 00:29:18;;;;;;;0.20;0.10;;;9.80;99.90;;;;;;25573765;23;20182;-70
2022/03/07 00:39:24;;;;;;;0.20;0.03;;;9.80;99.90;;;;;;25573698;23;20197;-70
2022/03/07 00:49:27;;;;;;;0.20;0.10;;;9.80;99.90;;;;;;25572750;23;20194;-71
2022/03/07 00:59:33;;;;;;;0.20;0.00;;;9.70;99.90;;;;;;25571910;23;20182;-71
2022/03/07 01:09:37;;;;;;;0.20;0.00;;;9.80;99.90;;;;;;25572403;23;20190;-71
2022/03/07 01:19:42;;;;;;;0.23;0.23;;;9.80;99.90;;;;;;25571445;23;20197;-70
2022/03/07 01:29:46;;;;;;;0.20;0.00;;;9.80;99.90;;;;;;25571767;23;20159;-70
2022/03/07 01:39:51;;;;;;;0.20;0.10;;;9.70;99.90;;;;;;25545640;23;20187;-70
2022/03/07 01:49:54;;;;;;;0.20;0.10;;;9.80;99.90;;;;;;25577439;23;20171;-69
2022/03/07 01:59:59;;;;;;;0.20;0.10;;;9.70;99.90;;;;;;25578508;23;20193;-70
2022/03/07 02:10:08;;;;;;;0.20;0.10;;;9.80;99.90;;;;;;25578851;23;20187;-70
2022/03/07 02:20:14;;;;;;;0.20;0.10;;;9.80;99.90;;;;;;25578393;23;20206;-67
2022/03/07 02:30:19;;;;;;;0.20;0.10;;;9.70;99.90;;;;;;25578338;23;20163;-66
2022/03/07 02:40:22;;;;;;;0.20;0.10;;;9.70;99.90;;;;;;25552420;23;20182;-66
2022/03/07 02:50:48;;;;;;;0.20;0.10;;;9.70;99.90;;;;;;25578933;23;20175;-67
2022/03/07 03:00:51;;;;;;;0.20;0.00;;;9.60;99.90;;;;;;25550561;23;20187;-68
2022/03/07 03:10:57;;;;;;;0.20;0.10;;;9.70;99.90;;;;;;25577480;23;20247;-67
2022/03/07 03:21:01;;;;;;;0.20;0.10;;;9.60;99.90;;;;;;25550499;23;20197;-67
2022/03/07 03:31:08;;;;;;;0.20;0.07;;;9.80;99.90;;;;;;25549597;23;20159;-69
2022/03/07 03:41:11;;;;;;;0.20;0.10;;;9.70;99.90;;;;;;25575595;23;20210;-70
2022/03/07 03:51:17;;;;;;;0.20;0.10;;;9.60;99.90;;;;;;25574905;23;20163;-69
2022/03/07 04:01:21;;;;;;;0.20;0.00;;;9.60;99.90;;;;;;25574497;23;20190;-69
2022/03/07 04:11:26;;;;;;;0.20;0.00;;;9.60;99.90;;;;;;25573720;23;20190;-69
2022/03/07 04:21:30;;;;;;;0.20;0.10;;;9.60;99.90;;;;;;25572952;23;20202;-70
2022/03/07 04:31:35;;;;;;;0.20;0.10;;;9.60;99.90;;;;;;25573417;23;20182;-69
2022/03/07 04:41:40;;;;;;;0.20;0.00;;;9.70;99.90;;;;;;25574164;23;20186;-71
2022/03/07 04:51:46;;;;;;;0.20;0.10;;;9.60;99.90;;;;;;25572995;23;20159;-70
2022/03/07 05:01:50;;;;;;;0.20;0.10;;;9.60;99.90;;;;;;25545563;23;20183;-70
2022/03/07 05:11:55;;;;;;;0.20;0.00;;;9.60;99.90;;;;;;25544941;23;20206;-70
2022/03/07 05:21:59;;;;;;;0.77;0.77;;;9.60;99.90;;;;;;25519423;23;20194;-69
2022/03/07 05:32:05;;;;;;;0.20;0.10;;;9.60;99.90;;;;;;25544279;23;20616;-70
2022/03/07 05:42:09;;;;;;;0.20;0.10;;;9.70;99.90;;;;;;25543214;23;20191;-68
2022/03/07 05:52:14;;;;;;;0.20;0.10;;;9.70;99.90;;;;;;25568963;23;20182;-70
2022/03/07 06:02:18;;;;;;;0.20;0.00;;;9.70;99.90;;;;;;25569256;23;20187;-70
2022/03/07 06:12:26;;;;;;;0.20;0.07;;;9.50;99.90;;;;;;25565669;23;20291;-70
2022/03/07 06:22:31;;;;;;;0.20;0.10;;;9.60;99.90;;;;;;25566673;23;20206;-70
2022/03/07 06:32:36;;;;;;;0.20;0.00;;;9.70;99.90;;;;;;25566245;23;20182;-71
2022/03/07 06:42:40;;;;;;;0.20;0.10;;;9.90;99.90;;;;;;25544774;23;20198;-70
2022/03/07 06:52:45;;;;;;;0.20;0.10;;;9.90;99.90;;;;;;25542371;23;20171;-67
2022/03/07 07:02:49;;;;;;;0.20;0.00;;;10.20;99.90;;;;;;25563502;23;20194;-67
2022/03/07 07:12:55;;;;;;;0.20;0.07;;;10.30;99.90;;;;;;25533148;23;20206;-67
2022/03/07 07:23:00;;;;;;;0.20;0.10;;;10.50;99.90;;;;;;25568430;23;20222;-66
2022/03/07 07:33:05;;;;;;;0.20;0.00;;;10.80;99.90;;;;;;25568426;23;20178;-66
2022/03/07 07:43:09;;;;;;;0.20;0.10;;;11.00;99.90;;;;;;25538768;23;20206;-68
2022/03/07 07:53:14;;;;;;;0.20;0.10;;;11.30;99.90;;;;;;25565109;23;20186;-66
2022/03/07 08:03:18;;;;;;;0.20;0.10;;;11.60;99.90;;;;;;25538071;23;20187;-66
2022/03/07 08:13:23;;;;;;;0.20;0.10;;;11.70;99.90;;;;;;25536498;23;20195;-67
2022/03/07 08:23:27;;;;;;;0.20;0.10;;;11.90;99.90;;;;;;25537782;23;20225;-68
2022/03/07 08:33:32;;;;;;;0.20;0.10;;;11.60;99.90;;;;;;25565472;23;20166;-68
2022/03/07 08:43:36;;;;;;;0.20;0.10;;;11.60;99.90;;;;;;25565618;23;20187;-67
2022/03/07 08:53:41;;;;;;;0.20;0.10;;;11.60;99.90;;;;;;25566124;23;20356;-66
2022/03/07 09:03:45;;;;;;;0.20;0.10;;;11.60;99.90;;;;;;25564158;23;20198;-68
2022/03/07 09:13:53;;;;;;;0.20;0.10;;;11.60;99.90;;;;;;25442562;23;20231;-66
2022/03/07 09:23:56;;;;;;;0.20;0.10;;;11.60;99.90;;;;;;25417609;23;20199;-70
2022/03/07 09:34:02;;;;;;;0.20;0.10;;;11.80;99.90;;;;;;25412033;23;20224;-72
2022/03/07 09:44:05;;;;;;;0.20;0.10;;;12.00;99.90;;;;;;25413411;23;20349;-71
2022/03/07 09:54:11;;;;;;;0.20;0.10;;;12.10;99.90;;;;;;25399751;23;20304;-80
2022/03/07 10:04:15;;;;;;;0.20;0.10;;;12.20;99.90;;;;;;25441483;23;20254;-81
2022/03/07 10:14:32;;;;;;;0.20;0.10;;;11.90;99.90;;;;;;25537079;23;20186;-82
2022/03/07 10:24:37;;;;;;;0.20;0.10;;;12.50;99.90;;;;;;25559481;23;20182;-82
2022/03/07 10:34:42;;;;;;;0.20;0.10;;;12.80;99.90;;;;;;25532942;23;20187;-82
2022/03/07 10:44:47;;;;;;;0.20;0.10;;;12.60;99.90;;;;;;25556253;23;20178;-79
2022/03/07 10:54:53;;;;;;;0.20;0.10;;;12.70;99.90;;;;;;25530867;23;20171;-66
2022/03/07 11:04:57;;;;;;;0.20;0.10;;;12.80;99.90;;;;;;25557651;23;20210;-66
2022/03/07 11:15:08;;;;;;;0.20;0.10;;;13.40;99.90;;;;;;25556306;23;20191;-68
2022/03/07 11:25:16;;;;;;;0.20;0.00;;;13.10;99.90;;;;;;25554805;23;20197;-80
2022/03/07 11:35:32;;;;;;;0.20;0.10;;;13.50;99.90;;;;;;25506986;23;20163;-78
2022/03/07 11:45:39;;;;;;;0.20;0.00;;;13.90;99.90;;;;;;25552961;23;20194;-79
2022/03/07 11:55:46;;;;;;;0.20;0.10;;;14.10;99.90;;;;;;25554032;23;20491;-78
2022/03/07 12:06:02;;;;;;;0.20;0.00;;;15.10;99.90;;;;;;25526131;23;20207;-81
2022/03/07 12:16:07;;;;;;;0.20;0.10;;;15.90;99.90;;;;;;25552460;23;20191;-80
2022/03/07 12:26:11;;;;;;;0.20;0.17;;;16.90;99.90;;;;;;25526812;23;20221;-80
2022/03/07 12:36:17;;;;;;;0.20;0.10;;;18.30;99.90;;;;;;25553523;23;20175;-79
2022/03/07 12:46:21;;;;;;;0.20;0.10;;;18.80;99.90;;;;;;25553319;23;20187;-78
2022/03/07 12:56:36;;;;;;;0.20;0.00;;;17.20;99.90;;;;;;25551807;23;20167;-77
2022/03/07 13:06:45;;;;;;;0.20;0.10;;;16.30;99.90;;;;;;25551162;23;20198;-78
2022/03/07 13:16:50;;;;;;;0.20;0.10;;;16.40;99.90;;;;;;25550832;23;20194;-73
2022/03/07 13:26:59;;;;;;;0.43;0.43;;;16.70;99.90;;;;;;25547106;23;20247;-78
2022/03/07 13:37:04;;;;;;;0.20;0.10;;;18.60;99.90;;;;;;25512455;23;20175;-81
2022/03/07 13:47:09;;;;;;;0.20;0.10;;;20.10;99.90;;;;;;25529396;23;20377;-81
2022/03/07 13:57:16;;;;;;;0.20;0.00;;;19.90;99.90;;;;;;25557246;23;20170;-69
2022/03/07 14:07:21;;;;;;;0.30;0.23;;;21.00;99.90;;;;;;25556003;23;20195;-70
2022/03/07 14:17:39;;;;;;;1.53;1.03;;;20.20;99.90;;;;;;25556449;23;20206;-68
2022/03/07 14:27:44;;;;;;;0.20;0.10;;;20.20;99.90;;;;;;25555759;23;20186;-67
2022/03/07 14:37:49;;;;;;;0.20;0.10;;;20.90;99.90;;;;;;25554898;23;20175;-69
2022/03/07 14:47:53;;;;;;;0.20;0.00;;;20.90;99.90;;;;;;25526981;23;20167;-66
2022/03/07 14:57:58;;;;;;;0.20;0.00;;;20.70;99.90;;;;;;25553992;23;20167;-65
2022/03/07 15:08:02;;;;;;;0.20;0.00;;;20.80;99.90;;;;;;25526705;23;20255;-79
2022/03/07 15:18:07;;;;;;;0.20;0.10;;;19.80;99.90;;;;;;25528523;23;20195;-69
2022/03/07 15:28:12;;;;;;;0.20;0.00;;;19.40;99.90;;;;;;25553459;23;20265;-70
2022/03/07 15:38:17;;;;;;;0.20;0.10;;;18.10;99.90;;;;;;25549789;23;20187;-69
2022/03/07 15:48:21;;;;;;;0.83;0.80;;;18.10;99.90;;;;;;25550933;23;20182;-68
2022/03/07 15:58:28;;;;;;;0.73;0.73;;;17.20;99.90;;;;;;25548311;23;20189;-69
2022/03/07 16:08:32;;;;;;;0.20;0.00;;;16.70;99.90;;;;;;25547566;23;20205;-67
2022/03/07 16:18:37;;;;;;;0.20;0.10;;;15.80;99.90;;;;;;25549489;23;20529;-70
2022/03/07 16:28:41;;;;;;;0.20;0.10;;;15.70;99.90;;;;;;25549674;23;20185;-70
2022/03/07 16:38:47;;;;;;;0.20;0.10;;;15.30;99.90;;;;;;25522911;23;20206;-78
2022/03/07 16:48:51;;;;;;;0.20;0.10;;;14.80;99.90;;;;;;25550568;23;20150;-77
2022/03/07 16:58:56;;;;;;;0.20;0.07;;;14.50;99.90;;;;;;25522356;23;20187;-78
2022/03/07 17:08:59;;;;;;;0.20;0.13;;;14.10;99.90;;;;;;25524171;23;20212;-75
2022/03/07 17:19:05;;;;;;;0.20;0.10;;;13.90;99.90;;;;;;25557376;23;20197;-67
2022/03/07 17:29:09;;;;;;;0.20;0.10;;;13.90;99.90;;;;;;25555421;23;20271;-67
2022/03/07 17:39:14;;;;;;;0.20;0.10;;;13.90;99.90;;;;;;25555829;23;20198;-66
2022/03/07 17:49:20;;;;;;;0.20;0.00;;;13.70;99.90;;;;;;25556043;23;20296;-66
2022/03/07 17:59:25;;;;;;;0.20;0.10;;;13.60;99.90;;;;;;25555384;23;20249;-66
2022/03/07 18:09:28;;;;;;;0.20;0.10;;;13.40;99.90;;;;;;25530738;23;20198;-66
2022/03/07 18:19:35;;;;;;;0.20;0.07;;;13.30;99.90;;;;;;25532013;23;20538;-66
2022/03/07 18:29:39;;;;;;;0.20;0.10;;;13.40;99.90;;;;;;25562306;23;20201;-65
2022/03/07 18:39:44;;;;;;;0.20;0.10;;;13.20;99.90;;;;;;25566265;23;20202;-65
2022/03/07 18:49:48;;;;;;;0.20;0.10;;;13.30;99.90;;;;;;25541273;23;20162;-65
2022/03/07 18:59:54;;;;;;;0.20;0.17;;;13.20;99.90;;;;;;25564930;23;20187;-65
2022/03/07 19:09:58;;;;;;;0.20;0.10;;;13.20;99.90;;;;;;25515226;23;20239;-66
2022/03/07 19:20:05;;;;;;;0.20;0.10;;;13.10;99.90;;;;;;25563283;23;20195;-65
2022/03/07 19:30:10;;;;;;;0.20;0.10;;;13.10;99.90;;;;;;25564627;23;20143;-68
2022/03/07 19:40:16;;;;;;;0.20;0.10;;;13.10;99.90;;;;;;25563348;23;20205;-79
2022/03/07 19:50:20;;;;;;;0.20;0.10;;;13.00;99.90;;;;;;25565987;23;20167;-77
2022/03/07 20:00:26;;;;;;;0.20;0.10;;;12.90;99.90;;;;;;25564314;23;20190;-77
2022/03/07 20:10:30;;;;;;;0.20;0.10;;;12.70;99.90;;;;;;25537965;23;20293;-77
2022/03/07 20:20:39;;;;;;;0.20;0.10;;;12.60;99.90;;;;;;25538391;23;20195;-77
2022/03/07 20:30:42;;;;;;;0.20;0.10;;;12.70;99.90;;;;;;25563759;23;20175;-78
2022/03/07 20:40:48;;;;;;;0.20;0.10;;;12.60;99.90;;;;;;25562339;23;20186;-77
2022/03/07 20:50:52;;;;;;;0.20;0.10;;;12.50;99.90;;;;;;25537708;23;20182;-78
2022/03/07 21:00:58;;;;;;;0.20;0.10;;;12.40;99.90;;;;;;25564397;23;20194;-78
2022/03/07 21:11:02;;;;;;;0.20;0.10;;;12.10;99.90;;;;;;25539075;23;20195;-78
2022/03/07 21:21:07;;;;;;;0.20;0.10;;;11.90;99.90;;;;;;25540106;23;20194;-76
2022/03/07 21:31:11;;;;;;;0.50;0.47;;;11.10;99.90;;;;;;25538693;23;20174;-75
2022/03/07 21:41:20;;;;;;;0.20;0.00;;;10.20;99.90;;;;;;25564681;23;20314;-75
2022/03/07 21:51:24;;;;;;;0.20;0.10;;;9.80;99.90;;;;;;25536896;23;20166;-76
2022/03/07 22:01:29;;;;;;;0.20;0.10;;;9.70;99.90;;;;;;25565513;23;20206;-74
2022/03/07 22:11:34;;;;;;;0.20;0.10;;;9.90;99.90;;;;;;25571972;23;20190;-76
2022/03/07 22:21:40;;;;;;;0.20;0.10;;;10.00;99.90;;;;;;25574086;23;20195;-79
2022/03/07 22:31:43;;;;;;;0.20;0.10;;;10.00;99.90;;;;;;25544596;23;20181;-75
2022/03/07 22:41:49;;;;;;;0.20;0.03;;;10.10;99.90;;;;;;25549354;23;20266;-75
2022/03/07 22:51:53;;;;;;;0.20;0.00;;;10.20;99.90;;;;;;25575307;23;20178;-77
2022/03/07 23:01:58;;;;;;;0.20;0.10;;;10.40;99.90;;;;;;25575422;23;20186;-75
2022/03/07 23:12:02;;;;;;;0.20;0.10;;;10.50;99.90;;;;;;25549341;23;20195;-78
2022/03/07 23:22:07;;;;;;;0.20;0.10;;;10.10;99.90;;;;;;25574620;23;20191;-75
2022/03/07 23:32:11;;;;;;;0.20;0.10;;;9.90;99.90;;;;;;25574045;23;20181;-75
2022/03/07 23:42:16;;;;;;;0.20;0.00;;;9.80;99.90;;;;;;25573568;23;20190;-69
2022/03/07 23:52:19;;;;;;;0.20;0.00;;;9.50;99.90;;;;;;25574198;23;20179;-69
